Terminal Aerodrome Forecast
Issued by NWS Melbourne, FL

Home | Current Version | Previous Version | Text Only | Print | Product List | Glossary On
Versions: 1 2 3 4 5 6 7 8 9 10 11 12 13 14 15 16 17 18 19 20 21 22
380
FTUS42 KMLB 220939 AAB
TAFMLB
TAF AMD
KMLB 220939Z 2210/2306 13012KT P6SM VCSH SCT040 BKN250
     FM221500 14013G20KT P6SM VCSH BKN025 OVC050
      TEMPO 2217/2221 3SM SHRA OVC010
     FM222100 13008KT 5SM -RA BR OVC015
      TEMPO 2221/2301 2SM SHRA OVC008
     FM230100 11012KT P6SM SCT020 OVC050
      TEMPO 2301/2304 5SM SHRA BKN020 OVC040
     FM230500 12011KT P6SM SCT025 OVC050=

USA.gov is the U.S. government's official web portal to all federal, state and local government web resources and services.